Time;durP1;ratioP1;P1;durP2;ratioP2;P2;SDS_P1;SDS_P2;PMS_P1;PMS_P2;Temp;Humidity;BMP_temperature;BMP_pressure;BME280_temperature;BME280_humidity;BME280_pressure;Samples;Min_cycle;Max_cycle;Signal;HPM_P1;HPM_P2
2022/07/31 00:00:29;;;;;;;5.68;2.40;;;18.70;99.90;;;;;;5111904;28;20079;-77
2022/07/31 00:02:55;;;;;;;4.00;2.40;;;18.70;99.90;;;;;;5095902;28;20521;-77
2022/07/31 00:05:22;;;;;;;5.22;2.75;;;18.60;99.90;;;;;;5095793;28;20455;-77
2022/07/31 00:07:48;;;;;;;4.10;2.22;;;18.50;99.90;;;;;;5094451;28;20065;-78
2022/07/31 00:10:13;;;;;;;3.60;2.25;;;18.50;99.90;;;;;;5093859;28;20399;-78
2022/07/31 00:12:39;;;;;;;4.63;2.42;;;18.50;99.90;;;;;;5113747;28;20082;-78
2022/07/31 00:15:08;;;;;;;8.48;2.60;;;18.50;99.90;;;;;;5095408;28;20482;-78
2022/07/31 00:17:34;;;;;;;4.95;2.47;;;18.40;99.90;;;;;;5094078;28;20067;-78
2022/07/31 00:20:00;;;;;;;3.95;2.17;;;18.40;99.90;;;;;;5093713;28;20070;-78
2022/07/31 00:22:26;;;;;;;5.93;2.67;;;18.40;99.90;;;;;;5094194;28;20047;-77
2022/07/31 00:24:52;;;;;;;6.45;3.28;;;18.40;99.90;;;;;;5116106;28;20031;-78
2022/07/31 00:27:17;;;;;;;5.93;2.80;;;18.40;99.90;;;;;;5103622;28;20061;-79
2022/07/31 00:29:43;;;;;;;4.60;3.47;;;18.30;99.90;;;;;;5098605;28;20031;-78
2022/07/31 00:32:10;;;;;;;8.57;3.22;;;18.40;99.90;;;;;;5099624;28;20067;-79
2022/07/31 00:34:35;;;;;;;9.45;3.85;;;18.30;99.90;;;;;;5088327;28;20048;-78
2022/07/31 00:37:01;;;;;;;6.00;3.05;;;18.30;99.90;;;;;;5080135;28;20043;-79
2022/07/31 00:39:27;;;;;;;5.93;3.33;;;18.30;99.90;;;;;;5088325;28;20122;-79
2022/07/31 00:41:53;;;;;;;9.27;4.03;;;18.30;99.90;;;;;;5098426;28;20063;-79
2022/07/31 00:44:20;;;;;;;4.60;3.42;;;18.30;99.90;;;;;;5099602;28;20047;-79
2022/07/31 00:46:45;;;;;;;8.60;3.97;;;18.30;99.90;;;;;;5100219;28;20768;-78
2022/07/31 00:49:11;;;;;;;5.40;3.60;;;18.30;99.90;;;;;;5115718;28;20145;-78
2022/07/31 00:51:38;;;;;;;6.95;3.85;;;18.20;99.90;;;;;;5099374;28;20084;-78
2022/07/31 00:54:05;;;;;;;6.18;3.58;;;18.30;99.90;;;;;;5099549;28;20047;-78
2022/07/31 00:56:31;;;;;;;9.68;4.00;;;18.20;99.90;;;;;;5096657;28;20169;-78
2022/07/31 00:58:56;;;;;;;7.28;4.38;;;18.20;99.90;;;;;;5098688;28;20085;-78
2022/07/31 01:01:22;;;;;;;5.72;3.42;;;18.20;99.90;;;;;;5116723;28;20047;-78
2022/07/31 01:03:48;;;;;;;3.95;3.58;;;18.20;99.90;;;;;;5116122;28;20043;-78
2022/07/31 01:06:14;;;;;;;8.98;4.40;;;18.20;99.90;;;;;;5098514;28;20050;-79
2022/07/31 01:08:39;;;;;;;11.18;4.53;;;18.20;99.90;;;;;;5116432;28;20390;-78
2022/07/31 01:11:29;;;;;;;8.68;4.20;;;18.30;99.90;;;;;;5098513;28;20032;-79
2022/07/31 01:14:01;;;;;;;6.45;3.85;;;18.20;99.90;;;;;;5098493;28;20119;-78
2022/07/31 01:16:31;;;;;;;5.07;4.00;;;18.30;99.90;;;;;;5097967;28;20035;-78
2022/07/31 01:18:58;;;;;;;5.57;4.18;;;18.30;99.90;;;;;;5098543;28;20086;-78
2022/07/31 01:21:34;;;;;;;6.90;4.15;;;18.20;99.90;;;;;;5097986;28;20045;-78
2022/07/31 01:24:23;;;;;;;11.32;4.38;;;18.20;99.90;;;;;;5096175;28;20486;-79
2022/07/31 01:26:55;;;;;;;9.30;4.70;;;18.20;99.90;;;;;;5091887;28;20570;-78
2022/07/31 01:29:38;;;;;;;7.45;4.63;;;18.20;99.90;;;;;;5081226;28;20049;-78
2022/07/31 01:32:16;;;;;;;4.10;3.65;;;18.20;99.90;;;;;;5096698;28;20063;-78
2022/07/31 01:34:51;;;;;;;6.80;3.80;;;18.20;99.90;;;;;;5114266;28;20035;-76
2022/07/31 01:37:29;;;;;;;7.28;4.20;;;18.20;99.90;;;;;;5093908;28;20039;-77
2022/07/31 01:40:08;;;;;;;5.68;4.05;;;18.20;99.90;;;;;;5111917;28;20534;-77
2022/07/31 01:42:38;;;;;;;6.28;3.78;;;18.20;99.90;;;;;;5093789;28;20043;-76
2022/07/31 01:45:06;;;;;;;4.85;3.88;;;18.20;99.90;;;;;;5092793;28;20112;-77
2022/07/31 01:47:33;;;;;;;8.38;4.22;;;18.20;99.90;;;;;;5093762;28;20043;-76
2022/07/31 01:50:01;;;;;;;5.80;3.30;;;18.30;99.90;;;;;;5076852;28;20126;-77
2022/07/31 01:52:28;;;;;;;5.57;3.53;;;18.30;99.90;;;;;;5093855;28;20551;-77
2022/07/31 01:54:57;;;;;;;9.27;4.07;;;18.20;99.90;;;;;;5089759;28;20047;-77
2022/07/31 01:57:24;;;;;;;7.50;3.95;;;18.20;99.90;;;;;;5093766;28;20043;-77
2022/07/31 01:59:55;;;;;;;7.28;4.03;;;18.30;99.90;;;;;;5093391;28;20047;-77
2022/07/31 02:02:22;;;;;;;4.53;3.63;;;18.20;99.90;;;;;;5092362;28;20059;-77
2022/07/31 02:04:49;;;;;;;6.40;3.03;;;18.30;99.90;;;;;;5092917;28;20054;-77
2022/07/31 02:07:16;;;;;;;4.57;3.15;;;18.30;99.90;;;;;;5076002;28;20050;-77
2022/07/31 02:09:43;;;;;;;3.75;3.35;;;18.30;99.90;;;;;;5093270;28;20724;-76
2022/07/31 02:12:11;;;;;;;5.20;3.30;;;18.30;99.90;;;;;;5092790;28;20055;-77
2022/07/31 02:14:41;;;;;;;5.30;3.33;;;18.20;99.90;;;;;;5075531;28;20071;-77
2022/07/31 02:17:08;;;;;;;4.38;3.30;;;18.20;99.90;;;;;;5092641;28;20035;-76
2022/07/31 02:19:39;;;;;;;7.30;3.47;;;18.20;99.90;;;;;;5076099;28;20036;-77
2022/07/31 02:22:05;;;;;;;7.82;3.83;;;18.20;99.90;;;;;;5076429;28;20043;-77
2022/07/31 02:24:32;;;;;;;6.55;3.72;;;18.20;99.90;;;;;;5093512;28;20032;-77
2022/07/31 02:26:58;;;;;;;4.22;3.10;;;18.20;99.90;;;;;;5092568;28;20050;-77
2022/07/31 02:29:25;;;;;;;4.82;3.47;;;18.20;99.90;;;;;;5093375;28;20441;-77
2022/07/31 02:31:54;;;;;;;16.55;3.80;;;18.10;99.90;;;;;;5093289;28;20043;-77
2022/07/31 02:34:21;;;;;;;5.38;3.15;;;18.20;99.90;;;;;;5093411;28;20047;-77
2022/07/31 02:36:47;;;;;;;6.72;3.72;;;18.20;99.90;;;;;;5092388;28;20032;-77
2022/07/31 02:39:15;;;;;;;7.03;2.92;;;18.10;99.90;;;;;;5075513;28;20205;-76
2022/07/31 02:41:41;;;;;;;8.95;3.75;;;18.20;99.90;;;;;;5076500;28;20055;-77
2022/07/31 02:44:10;;;;;;;7.18;3.40;;;18.10;99.90;;;;;;5092601;28;20051;-76
2022/07/31 02:46:36;;;;;;;5.00;3.45;;;18.10;99.90;;;;;;5090245;28;20052;-76
2022/07/31 02:49:02;;;;;;;5.88;3.50;;;18.10;99.90;;;;;;5073086;28;20093;-76
2022/07/31 02:51:28;;;;;;;7.75;3.88;;;18.10;99.90;;;;;;5093201;28;20543;-76
2022/07/31 02:53:54;;;;;;;3.65;3.15;;;18.10;99.90;;;;;;5093210;28;20118;-76
2022/07/31 02:56:21;;;;;;;6.63;4.18;;;18.10;99.90;;;;;;5093113;28;20043;-76
2022/07/31 02:58:46;;;;;;;7.05;3.75;;;18.10;99.90;;;;;;5092390;28;20040;-76
2022/07/31 03:01:13;;;;;;;4.47;3.47;;;18.10;99.90;;;;;;5091104;28;20046;-76
2022/07/31 03:03:39;;;;;;;6.07;3.65;;;18.10;99.90;;;;;;5076577;28;20039;-76
2022/07/31 03:06:04;;;;;;;8.50;4.32;;;18.10;99.90;;;;;;5093456;28;20516;-76
2022/07/31 03:08:30;;;;;;;8.40;3.65;;;18.10;99.90;;;;;;5092212;28;20043;-76
2022/07/31 03:10:56;;;;;;;6.10;3.55;;;18.00;99.90;;;;;;5109647;28;20067;-76
2022/07/31 03:13:24;;;;;;;7.35;4.15;;;18.10;99.90;;;;;;5093391;28;20063;-76
2022/07/31 03:15:50;;;;;;;7.32;3.78;;;18.00;99.90;;;;;;5092672;28;20127;-77
2022/07/31 03:18:18;;;;;;;7.03;4.38;;;18.00;99.90;;;;;;5093539;28;20375;-77
2022/07/31 03:20:45;;;;;;;6.65;3.80;;;18.00;99.90;;;;;;5096352;28;20052;-77
2022/07/31 03:23:12;;;;;;;4.45;3.90;;;18.00;99.90;;;;;;5114946;28;20371;-77
2022/07/31 03:25:39;;;;;;;7.43;4.68;;;18.00;99.90;;;;;;5095649;28;20043;-77
2022/07/31 03:28:05;;;;;;;7.30;3.72;;;18.00;99.90;;;;;;5095508;28;20043;-77
2022/07/31 03:30:31;;;;;;;5.25;3.80;;;18.00;99.90;;;;;;5079354;28;20031;-77
2022/07/31 03:32:57;;;;;;;5.65;3.88;;;18.00;99.90;;;;;;5079423;28;20505;-77
2022/07/31 03:35:24;;;;;;;7.43;4.22;;;18.00;99.90;;;;;;5094191;28;20039;-77
2022/07/31 03:37:49;;;;;;;7.50;4.55;;;18.00;99.90;;;;;;5095644;28;20036;-77
2022/07/31 03:40:15;;;;;;;6.15;4.07;;;18.00;99.90;;;;;;5095629;28;20387;-77
2022/07/31 03:42:42;;;;;;;7.25;4.22;;;18.00;99.90;;;;;;5096543;28;20047;-77
2022/07/31 03:45:09;;;;;;;7.53;4.55;;;18.00;99.90;;;;;;5079050;28;20050;-77
2022/07/31 03:47:35;;;;;;;5.55;4.28;;;17.90;99.90;;;;;;5094752;28;20673;-77
2022/07/31 03:50:01;;;;;;;7.20;4.60;;;17.90;99.90;;;;;;5095955;28;20036;-77
2022/07/31 03:52:28;;;;;;;6.70;4.18;;;17.90;99.90;;;;;;5094883;28;20050;-77
2022/07/31 03:54:54;;;;;;;8.40;4.25;;;17.90;99.90;;;;;;5114228;28;20148;-77
2022/07/31 03:57:21;;;;;;;6.22;4.90;;;17.80;99.90;;;;;;5094857;28;20032;-77
2022/07/31 03:59:49;;;;;;;6.63;5.40;;;17.90;99.90;;;;;;5095458;28;20040;-77
2022/07/31 04:02:15;;;;;;;8.73;4.35;;;17.90;99.90;;;;;;5114068;28;20105;-77
2022/07/31 04:04:42;;;;;;;9.68;4.60;;;17.90;99.90;;;;;;5096019;28;20120;-78
2022/07/31 04:07:09;;;;;;;7.07;4.50;;;17.90;99.90;;;;;;5094432;28;20402;-77
2022/07/31 04:09:35;;;;;;;6.75;4.75;;;17.90;99.90;;;;;;5083519;28;20040;-78
2022/07/31 04:12:00;;;;;;;8.52;4.50;;;17.90;99.90;;;;;;5076111;28;20040;-78
2022/07/31 04:14:26;;;;;;;6.63;4.18;;;17.90;99.90;;;;;;5075744;28;20495;-77
2022/07/31 04:16:52;;;;;;;10.38;4.93;;;17.90;99.90;;;;;;5087879;28;20051;-77
2022/07/31 04:19:17;;;;;;;8.13;4.75;;;17.90;99.90;;;;;;5095612;28;20040;-77
2022/07/31 04:21:43;;;;;;;6.57;4.45;;;17.90;99.90;;;;;;5078329;28;20046;-77
2022/07/31 04:24:10;;;;;;;5.70;4.20;;;17.90;99.90;;;;;;5094192;28;20085;-77
2022/07/31 04:26:36;;;;;;;9.60;4.10;;;17.90;99.90;;;;;;5095251;28;20047;-77
2022/07/31 04:29:01;;;;;;;7.60;4.63;;;17.90;99.90;;;;;;5094699;28;20548;-77
2022/07/31 04:31:27;;;;;;;6.53;3.92;;;17.90;99.90;;;;;;5094825;28;20518;-77
2022/07/31 04:33:53;;;;;;;6.97;4.28;;;17.90;99.90;;;;;;5077781;28;20501;-77
2022/07/31 04:36:18;;;;;;;9.90;4.68;;;17.90;99.90;;;;;;5095006;28;20122;-78
2022/07/31 04:38:44;;;;;;;8.70;5.15;;;17.90;99.90;;;;;;5093348;28;20456;-77
2022/07/31 04:41:09;;;;;;;8.35;4.70;;;17.90;99.90;;;;;;5094583;28;20040;-77
2022/07/31 04:43:35;;;;;;;6.10;4.35;;;17.90;99.90;;;;;;5094163;28;21021;-77
2022/07/31 04:46:00;;;;;;;4.88;4.13;;;17.90;99.90;;;;;;5094998;28;20039;-77
2022/07/31 04:48:26;;;;;;;6.53;4.20;;;18.00;99.90;;;;;;5094951;28;20048;-77
2022/07/31 04:50:52;;;;;;;10.18;4.78;;;17.90;99.90;;;;;;5094773;28;20200;-78
2022/07/31 04:53:17;;;;;;;6.38;4.38;;;18.00;99.90;;;;;;5094243;28;20108;-78
2022/07/31 04:56:31;;;;;;;6.60;4.78;;;18.00;99.90;;;;;;5093757;28;20039;-77
2022/07/31 04:58:28;;;;;;;9.65;4.75;;;18.10;99.90;;;;;;5094096;28;20063;-78
2022/07/31 05:00:54;;;;;;;9.80;4.82;;;18.10;99.90;;;;;;5094015;28;20048;-77
2022/07/31 05:03:20;;;;;;;7.22;5.15;;;18.10;99.90;;;;;;5093846;28;20477;-77
2022/07/31 05:05:45;;;;;;;7.90;4.97;;;18.20;99.90;;;;;;5111407;28;20039;-77
2022/07/31 05:08:11;;;;;;;6.35;5.38;;;18.20;99.90;;;;;;5094375;28;20067;-77
2022/07/31 05:13:20;;;;;;;7.28;4.90;;;18.30;99.90;;;;;;5093671;28;20108;-78
2022/07/31 05:15:46;;;;;;;6.55;4.78;;;18.30;99.90;;;;;;5093881;28;20040;-78
2022/07/31 05:18:11;;;;;;;8.55;5.30;;;18.40;99.90;;;;;;5094394;28;20507;-78
2022/07/31 05:20:37;;;;;;;7.22;5.38;;;18.40;99.90;;;;;;5094037;28;20058;-78
2022/07/31 05:23:03;;;;;;;7.13;4.97;;;18.50;99.90;;;;;;5092601;28;20048;-78
2022/07/31 05:25:28;;;;;;;6.72;4.88;;;18.50;99.90;;;;;;5094161;28;20136;-78
2022/07/31 05:27:54;;;;;;;6.25;4.78;;;18.50;99.90;;;;;;5092094;28;20114;-78
2022/07/31 05:30:19;;;;;;;7.22;4.78;;;18.60;99.90;;;;;;5111974;28;20093;-78
2022/07/31 05:32:45;;;;;;;8.45;4.93;;;18.60;99.90;;;;;;5094182;28;20043;-78
2022/07/31 05:35:10;;;;;;;7.75;5.28;;;18.70;99.90;;;;;;5092598;28;20044;-78
2022/07/31 05:37:36;;;;;;;9.15;5.15;;;18.70;99.90;;;;;;5094330;28;20051;-78
2022/07/31 05:40:02;;;;;;;10.73;5.05;;;18.70;99.90;;;;;;5093725;28;20043;-78
2022/07/31 05:42:28;;;;;;;8.98;4.82;;;18.80;99.90;;;;;;5093988;28;20051;-78
2022/07/31 05:44:53;;;;;;;7.40;4.90;;;18.80;99.90;;;;;;5092597;28;20092;-78
2022/07/31 05:47:19;;;;;;;6.38;5.07;;;18.80;99.90;;;;;;5093754;28;20502;-78
2022/07/31 05:49:45;;;;;;;18.08;6.22;;;18.90;99.90;;;;;;5093368;28;20044;-78
2022/07/31 05:52:10;;;;;;;5.63;4.97;;;18.90;99.90;;;;;;5091933;28;20040;-78
2022/07/31 05:54:36;;;;;;;6.65;4.25;;;18.90;99.90;;;;;;5092441;28;20035;-78
2022/07/31 05:57:02;;;;;;;9.27;5.03;;;18.90;99.90;;;;;;5094050;28;20046;-78
2022/07/31 05:59:27;;;;;;;8.27;4.43;;;18.90;99.90;;;;;;5090110;28;20036;-78
2022/07/31 06:01:53;;;;;;;10.18;5.45;;;19.00;99.90;;;;;;5093543;28;20039;-77
2022/07/31 06:04:18;;;;;;;6.68;4.95;;;18.90;99.90;;;;;;5092880;28;20414;-78
2022/07/31 06:06:44;;;;;;;8.52;5.78;;;19.00;99.90;;;;;;5094022;28;20043;-76
2022/07/31 06:09:10;;;;;;;8.52;5.10;;;19.00;99.90;;;;;;5093729;28;20047;-77
2022/07/31 06:11:36;;;;;;;7.22;5.15;;;19.00;99.90;;;;;;5093532;28;20051;-77
2022/07/31 06:14:02;;;;;;;8.80;5.57;;;19.10;99.90;;;;;;5093264;28;20436;-77
2022/07/31 06:16:27;;;;;;;6.10;5.13;;;19.20;99.90;;;;;;5090480;28;20047;-77
2022/07/31 06:18:53;;;;;;;6.88;4.53;;;19.30;99.90;;;;;;5093750;28;20061;-77
2022/07/31 06:21:18;;;;;;;5.82;5.13;;;19.30;99.90;;;;;;5093363;28;20035;-77
2022/07/31 06:23:44;;;;;;;7.43;5.00;;;19.30;99.90;;;;;;5093565;28;20044;-77
2022/07/31 06:26:10;;;;;;;6.57;5.00;;;19.30;99.90;;;;;;5111632;28;20043;-77
2022/07/31 06:28:36;;;;;;;7.07;5.40;;;19.40;99.90;;;;;;5086014;28;20090;-77
2022/07/31 06:31:02;;;;;;;7.32;5.20;;;19.40;99.90;;;;;;5093197;28;20071;-77
2022/07/31 06:33:27;;;;;;;6.35;5.05;;;19.40;99.90;;;;;;5093461;28;20482;-78
2022/07/31 06:35:53;;;;;;;8.65;5.00;;;19.50;99.90;;;;;;5093450;28;20058;-77
2022/07/31 06:38:23;;;;;;;6.32;4.32;;;19.50;99.90;;;;;;5076256;28;20039;-77
2022/07/31 06:40:49;;;;;;;5.72;4.75;;;19.60;99.90;;;;;;5093010;28;20070;-76
2022/07/31 06:43:14;;;;;;;8.02;5.35;;;19.70;99.90;;;;;;5093673;28;20071;-77
2022/07/31 06:45:41;;;;;;;9.52;5.53;;;19.70;99.90;;;;;;5093647;28;20074;-78
2022/07/31 06:48:11;;;;;;;9.10;5.22;;;19.80;99.90;;;;;;5092307;28;20123;-77
2022/07/31 06:50:36;;;;;;;4.82;4.20;;;19.90;99.90;;;;;;5085240;28;20055;-77
2022/07/31 06:53:02;;;;;;;6.28;5.18;;;19.90;99.90;;;;;;5094312;28;20039;-78
2022/07/31 06:55:27;;;;;;;5.10;4.53;;;20.00;99.90;;;;;;5079699;28;20111;-77
2022/07/31 06:57:53;;;;;;;7.95;4.55;;;20.20;99.90;;;;;;5096295;28;20036;-77
2022/07/31 07:00:19;;;;;;;7.78;5.18;;;20.30;99.90;;;;;;5096832;28;20489;-76
2022/07/31 07:02:44;;;;;;;7.30;5.35;;;20.40;99.90;;;;;;5097137;28;20040;-77
2022/07/31 07:05:10;;;;;;;6.40;4.80;;;20.40;99.90;;;;;;5097260;28;20172;-76
2022/07/31 07:07:36;;;;;;;7.18;5.13;;;20.40;99.90;;;;;;5094751;28;20077;-77
2022/07/31 07:10:03;;;;;;;5.80;4.75;;;20.50;99.90;;;;;;5114738;28;20032;-77
2022/07/31 07:12:29;;;;;;;8.43;5.70;;;20.50;99.90;;;;;;5097025;28;20127;-77
2022/07/31 07:14:54;;;;;;;10.80;6.05;;;20.50;99.90;;;;;;5096929;28;20073;-78
2022/07/31 07:17:20;;;;;;;8.68;6.22;;;20.50;99.90;;;;;;5096808;28;20042;-77
2022/07/31 07:19:46;;;;;;;8.95;5.80;;;20.50;99.90;;;;;;5093705;28;20097;-76
2022/07/31 07:22:11;;;;;;;11.30;5.57;;;20.50;99.90;;;;;;5097105;28;20046;-77
2022/07/31 07:24:37;;;;;;;8.95;5.82;;;20.60;99.90;;;;;;5099568;28;20470;-77
2022/07/31 07:27:09;;;;;;;9.02;5.90;;;20.60;99.90;;;;;;5115331;28;20039;-78
2022/07/31 07:29:34;;;;;;;11.48;5.57;;;20.70;99.90;;;;;;5116368;28;20074;-77
2022/07/31 07:32:00;;;;;;;7.97;5.95;;;20.80;99.90;;;;;;5110105;28;20036;-76
2022/07/31 07:34:26;;;;;;;10.65;6.53;;;20.90;99.90;;;;;;5095603;28;20032;-77
2022/07/31 07:36:52;;;;;;;9.80;6.70;;;20.90;99.90;;;;;;5096341;28;20042;-77
2022/07/31 07:39:18;;;;;;;9.25;6.07;;;21.00;99.90;;;;;;5113521;28;20517;-78
2022/07/31 07:41:43;;;;;;;8.23;6.40;;;21.00;99.90;;;;;;5096118;28;20042;-78
2022/07/31 07:44:09;;;;;;;9.38;6.10;;;21.00;99.90;;;;;;5114861;28;20044;-78
2022/07/31 07:46:34;;;;;;;8.45;6.05;;;21.10;99.90;;;;;;5113833;28;20088;-78
2022/07/31 07:49:01;;;;;;;9.25;6.75;;;21.10;99.90;;;;;;5095817;28;20052;-78
2022/07/31 07:51:27;;;;;;;10.02;6.45;;;21.10;99.90;;;;;;5093916;28;20368;-77
2022/07/31 07:53:52;;;;;;;11.77;6.57;;;21.20;99.90;;;;;;5095893;28;20046;-77
2022/07/31 07:56:18;;;;;;;11.95;7.75;;;21.20;99.90;;;;;;5114321;28;20031;-79
2022/07/31 07:58:44;;;;;;;11.38;7.20;;;21.10;99.90;;;;;;5096221;28;20082;-78
2022/07/31 08:01:09;;;;;;;11.00;6.82;;;21.10;99.90;;;;;;5095782;28;20067;-77
2022/07/31 08:03:35;;;;;;;10.73;6.95;;;21.10;99.90;;;;;;5095917;28;20051;-78
2022/07/31 08:06:01;;;;;;;7.60;6.35;;;21.00;99.90;;;;;;5097359;28;20122;-78
2022/07/31 08:08:26;;;;;;;9.15;5.97;;;21.10;99.90;;;;;;5078754;28;20078;-78
2022/07/31 08:10:52;;;;;;;10.20;6.22;;;21.20;99.90;;;;;;5095434;28;20452;-80
2022/07/31 08:13:18;;;;;;;9.27;6.57;;;21.40;99.90;;;;;;5112876;28;20044;-78
2022/07/31 08:15:44;;;;;;;10.27;5.93;;;21.40;99.90;;;;;;5112737;28;20099;-77
2022/07/31 08:18:09;;;;;;;9.45;5.60;;;21.60;99.90;;;;;;5120513;27;20399;-77
2022/07/31 08:20:38;;;;;;;7.78;5.57;;;21.70;99.90;;;;;;5103021;27;20054;-77
2022/07/31 08:23:04;;;;;;;7.63;5.47;;;21.80;99.90;;;;;;5099829;28;20043;-76
2022/07/31 08:25:29;;;;;;;8.80;5.72;;;21.90;99.90;;;;;;5095156;28;20039;-77
2022/07/31 08:27:55;;;;;;;11.15;6.43;;;22.00;99.90;;;;;;5095665;28;20093;-78
2022/07/31 08:30:20;;;;;;;9.40;6.00;;;22.10;99.90;;;;;;5077349;28;20030;-78
2022/07/31 08:32:46;;;;;;;12.68;6.70;;;22.20;99.90;;;;;;5095553;28;20036;-78
2022/07/31 08:35:12;;;;;;;8.20;6.32;;;22.20;99.90;;;;;;5094870;28;20040;-77
2022/07/31 08:37:40;;;;;;;8.27;5.78;;;22.20;99.90;;;;;;5095327;28;20502;-77
2022/07/31 08:40:06;;;;;;;7.43;5.10;;;22.10;99.90;;;;;;5095392;27;20054;-79
2022/07/31 08:42:32;;;;;;;7.30;5.50;;;22.10;99.90;;;;;;5098433;28;20038;-77
2022/07/31 08:44:58;;;;;;;8.35;5.40;;;22.00;99.90;;;;;;5095210;28;20151;-77
2022/07/31 08:47:25;;;;;;;8.88;5.53;;;21.90;99.90;;;;;;5095210;28;20502;-78
2022/07/31 08:49:51;;;;;;;10.13;6.28;;;21.80;99.90;;;;;;5077711;28;20039;-79
2022/07/31 08:52:20;;;;;;;6.78;5.70;;;21.80;99.90;;;;;;5098637;28;20031;-79
2022/07/31 08:54:48;;;;;;;8.77;6.65;;;21.70;99.90;;;;;;5094941;28;20514;-79
2022/07/31 08:57:14;;;;;;;6.78;5.47;;;21.60;99.90;;;;;;5078014;28;20504;-79
2022/07/31 08:59:41;;;;;;;9.52;6.80;;;21.50;99.90;;;;;;5094738;28;20118;-78
2022/07/31 09:02:11;;;;;;;10.13;6.68;;;21.50;99.90;;;;;;5094531;28;20043;-77
2022/07/31 09:04:36;;;;;;;8.25;7.03;;;21.40;99.90;;;;;;5094406;28;20078;-77
2022/07/31 09:07:03;;;;;;;8.05;6.43;;;21.40;99.90;;;;;;5092759;28;20482;-78
2022/07/31 09:09:29;;;;;;;10.60;6.80;;;21.30;99.90;;;;;;5119389;27;20043;-77
2022/07/31 09:11:56;;;;;;;11.80;7.63;;;21.20;99.90;;;;;;5093935;28;20047;-78
2022/07/31 09:14:33;;;;;;;11.60;6.63;;;21.20;99.90;;;;;;5093942;28;20156;-78
2022/07/31 09:17:01;;;;;;;8.73;6.90;;;21.10;99.90;;;;;;5101509;27;20086;-78
2022/07/31 09:19:38;;;;;;;9.35;7.15;;;21.00;99.90;;;;;;5099980;28;20067;-79
2022/07/31 09:22:03;;;;;;;9.02;5.75;;;21.00;99.90;;;;;;5094171;28;20047;-78
2022/07/31 09:24:32;;;;;;;7.88;6.22;;;21.00;99.90;;;;;;5109099;28;20051;-78
2022/07/31 09:27:04;;;;;;;9.85;6.60;;;20.90;99.90;;;;;;5110844;28;20036;-78
2022/07/31 09:29:38;;;;;;;9.45;6.43;;;20.90;99.90;;;;;;5110504;28;20654;-78
2022/07/31 09:32:15;;;;;;;12.57;6.57;;;20.90;99.90;;;;;;5110793;28;20044;-78
2022/07/31 09:34:41;;;;;;;11.15;6.75;;;20.80;99.90;;;;;;5095844;28;20039;-77
2022/07/31 09:37:15;;;;;;;9.82;6.55;;;20.80;99.90;;;;;;5088829;28;20033;-78
2022/07/31 09:39:47;;;;;;;10.95;6.60;;;20.90;99.90;;;;;;5088005;28;20031;-78
2022/07/31 09:42:13;;;;;;;10.25;6.70;;;20.80;99.90;;;;;;5093591;28;20126;-79
2022/07/31 09:44:41;;;;;;;10.93;7.22;;;20.90;99.90;;;;;;5093703;28;20065;-78
2022/07/31 09:47:17;;;;;;;10.13;6.45;;;20.80;99.90;;;;;;5076399;28;20049;-77
2022/07/31 09:49:43;;;;;;;12.32;7.22;;;20.80;99.90;;;;;;5092933;28;20111;-78
2022/07/31 09:52:18;;;;;;;12.93;7.75;;;20.80;99.90;;;;;;5089843;28;20035;-78
2022/07/31 09:54:44;;;;;;;14.02;8.50;;;20.80;99.90;;;;;;5093337;28;20067;-77
2022/07/31 09:57:11;;;;;;;12.25;7.75;;;20.80;99.90;;;;;;5106501;28;20074;-82
2022/07/31 09:59:37;;;;;;;11.68;8.05;;;20.80;99.90;;;;;;5087083;28;20104;-76
2022/07/31 10:02:06;;;;;;;12.52;7.97;;;20.90;99.90;;;;;;5093064;28;20398;-78
2022/07/31 10:04:32;;;;;;;12.38;8.32;;;21.00;99.90;;;;;;5091994;28;20043;-77
2022/07/31 10:06:58;;;;;;;14.52;8.50;;;21.00;99.90;;;;;;5093293;28;20045;-78
2022/07/31 10:09:25;;;;;;;10.90;7.90;;;21.10;99.90;;;;;;5092654;28;20071;-77
2022/07/31 10:11:54;;;;;;;12.18;8.25;;;21.10;99.90;;;;;;5092965;28;20123;-77
2022/07/31 10:14:33;;;;;;;10.02;7.57;;;21.10;99.90;;;;;;5093189;28;20040;-78
2022/07/31 10:17:03;;;;;;;10.68;7.90;;;21.20;99.90;;;;;;5091826;28;20048;-77
2022/07/31 10:19:33;;;;;;;11.18;7.57;;;21.10;99.90;;;;;;5092691;28;20039;-77
2022/07/31 10:22:02;;;;;;;19.35;11.65;;;21.20;99.90;;;;;;5092994;28;20054;-77
2022/07/31 10:24:35;;;;;;;13.10;8.55;;;21.20;99.90;;;;;;5093322;28;20047;-77
2022/07/31 10:27:00;;;;;;;10.07;6.80;;;21.20;99.90;;;;;;5092449;28;20047;-77
2022/07/31 10:29:26;;;;;;;10.18;7.25;;;21.20;99.90;;;;;;5092393;28;20042;-80
2022/07/31 10:31:52;;;;;;;10.57;7.25;;;21.20;99.90;;;;;;5093051;28;20039;-79
2022/07/31 10:34:19;;;;;;;12.38;7.78;;;21.20;99.90;;;;;;5093312;28;20390;-78
2022/07/31 10:36:49;;;;;;;10.07;7.75;;;21.20;99.90;;;;;;5093237;28;20043;-77
2022/07/31 10:39:30;;;;;;;8.18;7.13;;;21.20;99.90;;;;;;5092791;28;20052;-77
2022/07/31 10:42:20;;;;;;;8.67;7.13;;;21.10;99.90;;;;;;5091047;28;20050;-77
2022/07/31 10:44:54;;;;;;;10.15;7.80;;;21.20;99.90;;;;;;5088664;28;20051;-77
2022/07/31 10:47:20;;;;;;;12.55;7.03;;;21.20;99.90;;;;;;5092740;28;20044;-77
2022/07/31 10:49:48;;;;;;;8.77;6.95;;;21.10;99.90;;;;;;5092419;28;20118;-77
2022/07/31 10:52:29;;;;;;;8.70;7.00;;;21.10;99.90;;;;;;5093992;28;20047;-77
2022/07/31 10:54:57;;;;;;;10.10;7.90;;;21.10;99.90;;;;;;5091432;28;20031;-79
2022/07/31 10:57:33;;;;;;;11.48;6.85;;;21.20;99.90;;;;;;5094077;28;20044;-77
2022/07/31 11:00:16;;;;;;;9.98;7.32;;;21.20;99.90;;;;;;5092176;28;20079;-78
2022/07/31 11:02:43;;;;;;;9.48;7.00;;;21.20;99.90;;;;;;5109621;28;20044;-77
2022/07/31 11:05:10;;;;;;;12.32;7.90;;;21.20;99.90;;;;;;5094722;28;20031;-79
2022/07/31 11:07:36;;;;;;;11.95;6.85;;;21.20;99.90;;;;;;5074645;28;20032;-77
2022/07/31 11:10:17;;;;;;;11.15;7.03;;;21.20;99.90;;;;;;5092242;28;20047;-76
2022/07/31 11:12:43;;;;;;;11.32;6.53;;;21.10;99.90;;;;;;5079966;28;20089;-78
2022/07/31 11:15:23;;;;;;;10.98;7.65;;;21.00;99.90;;;;;;5092338;28;20046;-78
2022/07/31 11:17:49;;;;;;;9.98;8.25;;;20.90;99.90;;;;;;5091765;28;20054;-78
2022/07/31 11:20:26;;;;;;;12.23;7.82;;;20.80;99.90;;;;;;5090941;28;20374;-78
2022/07/31 11:23:00;;;;;;;13.15;8.10;;;20.60;99.90;;;;;;5092401;28;20557;-77
2022/07/31 11:25:28;;;;;;;13.63;8.70;;;20.50;99.90;;;;;;5092305;28;20478;-79
2022/07/31 11:28:08;;;;;;;13.57;9.23;;;20.30;99.90;;;;;;5092359;28;20036;-78
2022/07/31 11:30:45;;;;;;;14.43;9.43;;;20.20;99.90;;;;;;5108474;28;20046;-78
2022/07/31 11:33:11;;;;;;;17.65;10.13;;;20.20;99.90;;;;;;5092181;28;20040;-77
2022/07/31 11:35:38;;;;;;;18.85;11.00;;;20.10;99.90;;;;;;5092174;28;20043;-77
2022/07/31 11:38:03;;;;;;;17.20;11.50;;;20.00;99.90;;;;;;5092399;28;20086;-77
2022/07/31 11:40:29;;;;;;;18.25;11.60;;;20.00;99.90;;;;;;5112856;27;20067;-77
2022/07/31 11:42:56;;;;;;;17.13;10.82;;;20.00;99.90;;;;;;5094956;28;20509;-76
2022/07/31 11:45:22;;;;;;;16.63;12.15;;;19.90;99.90;;;;;;5096019;28;20398;-77
2022/07/31 11:47:49;;;;;;;20.27;12.18;;;19.90;99.90;;;;;;5096270;28;20093;-76
2022/07/31 11:50:14;;;;;;;18.52;12.63;;;19.90;99.90;;;;;;5097403;28;20100;-78
2022/07/31 11:52:45;;;;;;;20.98;11.55;;;19.90;99.90;;;;;;5098952;28;20035;-78
2022/07/31 11:55:15;;;;;;;18.90;13.60;;;19.80;99.90;;;;;;5098948;28;20555;-78
2022/07/31 11:57:41;;;;;;;19.92;13.32;;;19.90;99.90;;;;;;5098353;28;20036;-78
2022/07/31 12:00:13;;;;;;;25.15;15.43;;;19.80;99.90;;;;;;5097755;28;20062;-78
2022/07/31 12:02:43;;;;;;;26.38;14.68;;;19.90;99.90;;;;;;5099345;28;20039;-78
2022/07/31 12:05:12;;;;;;;23.98;15.60;;;19.90;99.90;;;;;;5098659;28;20152;-78
2022/07/31 12:07:42;;;;;;;21.50;13.93;;;20.00;99.90;;;;;;5099009;28;20035;-78
2022/07/31 12:10:12;;;;;;;19.20;13.65;;;19.90;99.90;;;;;;5094164;28;20020;-78
2022/07/31 12:12:39;;;;;;;23.58;14.73;;;19.90;99.90;;;;;;5116953;28;20027;-77
2022/07/31 12:15:17;;;;;;;19.35;13.95;;;20.00;99.90;;;;;;5115991;28;20077;-78
2022/07/31 12:17:43;;;;;;;24.25;15.38;;;20.10;99.90;;;;;;5099039;28;20406;-78
2022/07/31 12:20:10;;;;;;;21.85;15.07;;;20.10;99.90;;;;;;5099682;28;20035;-78
2022/07/31 12:22:35;;;;;;;19.95;15.00;;;20.20;99.90;;;;;;5101168;28;20032;-78
2022/07/31 12:25:01;;;;;;;24.27;15.88;;;20.40;99.90;;;;;;5083679;28;20031;-78
2022/07/31 12:27:27;;;;;;;21.00;14.90;;;20.50;99.90;;;;;;5082494;28;20051;-78
2022/07/31 12:29:53;;;;;;;25.73;16.30;;;20.60;99.90;;;;;;5082453;28;20046;-78
2022/07/31 12:32:26;;;;;;;22.10;15.85;;;20.60;99.90;;;;;;5099193;28;20038;-78
2022/07/31 12:35:02;;;;;;;21.15;15.73;;;20.50;99.90;;;;;;5100204;28;20494;-78
2022/07/31 12:37:28;;;;;;;24.30;16.75;;;20.40;99.90;;;;;;5082356;28;20046;-78
2022/07/31 12:39:55;;;;;;;24.50;16.27;;;20.20;99.90;;;;;;5097371;28;20035;-78
2022/07/31 12:42:33;;;;;;;22.20;15.85;;;20.10;99.90;;;;;;5082418;28;20039;-78
2022/07/31 12:45:00;;;;;;;22.33;16.58;;;20.10;99.90;;;;;;5083510;28;20031;-78
2022/07/31 12:47:33;;;;;;;25.30;17.00;;;20.10;99.90;;;;;;5081371;28;20035;-78